createdAt,value
2022-11-18T00:01:24.384Z,99.90
2022-11-18T00:03:53.961Z,99.70
2022-11-18T00:06:23.532Z,99.90
2022-11-18T00:08:51.696Z,83.40
2022-11-18T00:11:34.514Z,99.90
2022-11-18T00:14:20.933Z,45.90
2022-11-18T00:16:50.858Z,97.20
2022-11-18T00:19:20.610Z,96.30
2022-11-18T00:21:48.943Z,55.50
2022-11-18T00:24:17.215Z,95.80
2022-11-18T00:26:45.358Z,92.90
2022-11-18T00:29:13.605Z,96.30
2022-11-18T00:31:41.741Z,82.10
2022-11-18T00:34:12.397Z,84.00
2022-11-18T00:36:41.919Z,93.30
2022-11-18T00:39:11.302Z,50.60
2022-11-18T00:41:56.779Z,99.90
2022-11-18T00:44:24.905Z,99.90
2022-11-18T00:46:53.090Z,99.90
2022-11-18T00:49:21.213Z,99.90
2022-11-18T00:51:50.756Z,53.70
2022-11-18T00:54:18.992Z,99.90
2022-11-18T00:56:47.158Z,99.90
2022-11-18T00:59:15.648Z,99.90
2022-11-18T01:01:44.188Z,93.30
2022-11-18T01:04:12.499Z,70.40
2022-11-18T01:06:40.685Z,38.40
2022-11-18T01:09:10.113Z,60.80
2022-11-18T01:11:55.612Z,99.90
2022-11-18T01:14:25.486Z,96.80
2022-11-18T01:16:55.836Z,99.90
2022-11-18T01:19:24.217Z,99.90
2022-11-18T01:21:52.416Z,99.90
2022-11-18T01:24:22.222Z,99.90
2022-11-18T01:26:50.567Z,97.10
2022-11-18T01:29:19.298Z,98.30
2022-11-18T01:32:09.201Z,44.10
2022-11-18T01:34:36.038Z,96.80
2022-11-18T01:37:04.214Z,99.90
2022-11-18T01:39:33.693Z,99.90
2022-11-18T01:42:01.771Z,99.90
2022-11-18T01:44:59.163Z,99.90
2022-11-18T01:47:27.937Z,99.90
2022-11-18T01:49:56.340Z,99.90
2022-11-18T01:52:24.474Z,99.90
2022-11-18T01:54:55.945Z,19.70
2022-11-18T01:57:24.341Z,93.50
2022-11-18T01:59:53.199Z,99.90
2022-11-18T02:02:21.382Z,53.20
2022-11-18T02:04:49.984Z,99.90
2022-11-18T02:07:18.246Z,99.90
2022-11-18T02:09:46.410Z,99.90
2022-11-18T02:12:15.981Z,99.90
2022-11-18T02:14:45.195Z,49.50
2022-11-18T02:17:16.653Z,90.00
2022-11-18T02:20:10.285Z,54.10
2022-11-18T02:22:49.097Z,98.50
2022-11-18T02:25:19.718Z,99.90
2022-11-18T02:28:05.514Z,99.90
2022-11-18T02:30:35.871Z,99.90
2022-11-18T02:33:05.679Z,99.90
2022-11-18T02:35:37.119Z,99.90
2022-11-18T02:38:07.496Z,99.90
2022-11-18T02:40:37.185Z,99.90
2022-11-18T02:43:06.752Z,99.90
2022-11-18T02:45:36.207Z,99.90
2022-11-18T02:48:06.980Z,99.90
2022-11-18T02:50:35.289Z,99.90
2022-11-18T02:53:04.992Z,99.90
2022-11-18T02:55:34.146Z,99.90
2022-11-18T02:58:02.527Z,99.90
2022-11-18T03:00:30.600Z,99.90
2022-11-18T03:03:00.417Z,78.60
2022-11-18T03:05:31.883Z,99.90
2022-11-18T03:08:03.616Z,99.90
2022-11-18T03:10:37.132Z,96.80
2022-11-18T03:13:07.077Z,95.30
2022-11-18T03:15:37.873Z,99.90
2022-11-18T03:18:12.900Z,99.90
2022-11-18T03:20:43.632Z,99.90
2022-11-18T03:23:14.031Z,99.90
2022-11-18T03:25:45.411Z,99.90
2022-11-18T03:28:15.807Z,98.20
2022-11-18T03:30:47.368Z,99.90
2022-11-18T03:33:20.904Z,99.90
2022-11-18T03:35:50.376Z,99.90
2022-11-18T03:38:19.634Z,99.90
2022-11-18T03:40:50.485Z,99.90
2022-11-18T03:43:19.291Z,99.90
2022-11-18T03:45:48.666Z,99.90
2022-11-18T03:48:18.728Z,99.90
2022-11-18T03:50:49.152Z,99.90
2022-11-18T03:53:17.686Z,99.90
2022-11-18T03:55:49.180Z,99.90
2022-11-18T03:58:19.745Z,99.90
2022-11-18T04:00:49.825Z,99.90
2022-11-18T04:03:19.298Z,99.90
2022-11-18T04:05:47.368Z,99.90
2022-11-18T04:08:17.721Z,99.90
2022-11-18T04:10:49.104Z,1.00
2022-11-18T04:13:18.953Z,1.00
2022-11-18T04:15:47.041Z,1.00
2022-11-18T04:18:15.289Z,1.00
2022-11-18T04:20:45.090Z,99.90
2022-11-18T04:23:13.177Z,1.00
2022-11-18T04:25:41.497Z,1.00
2022-11-18T04:30:38.001Z,70.70
2022-11-18T04:33:06.367Z,99.90
2022-11-18T04:35:34.448Z,1.00
2022-11-18T04:38:05.097Z,99.90
2022-11-18T04:40:33.311Z,99.90
2022-11-18T04:43:01.513Z,99.90
2022-11-18T04:45:29.611Z,1.00
2022-11-18T04:48:03.348Z,99.90
2022-11-18T04:50:31.940Z,1.00
2022-11-18T04:53:00.089Z,1.00
2022-11-18T04:55:29.531Z,1.00
2022-11-18T04:57:57.624Z,1.00
2022-11-18T05:00:25.956Z,1.00
2022-11-18T05:02:54.080Z,1.00
2022-11-18T05:05:22.123Z,1.00
2022-11-18T05:07:50.273Z,1.00
2022-11-18T05:10:18.705Z,99.90
2022-11-18T05:12:49.771Z,1.00
2022-11-18T05:15:17.986Z,1.00
2022-11-18T05:17:46.105Z,1.00
2022-11-18T05:20:14.346Z,1.00
2022-11-18T05:22:42.613Z,27.40
2022-11-18T05:25:11.103Z,1.00
2022-11-18T05:27:39.166Z,1.00
2022-11-18T05:30:09.923Z,1.00
2022-11-18T05:32:38.163Z,1.00
2022-11-18T05:35:07.027Z,1.00
2022-11-18T05:37:35.142Z,47.00
2022-11-18T05:40:03.218Z,90.60
2022-11-18T05:42:48.688Z,1.00
2022-11-18T05:45:19.502Z,1.00
2022-11-18T05:48:01.632Z,99.90
2022-11-18T05:50:29.706Z,99.90
2022-11-18T05:52:57.853Z,99.90
2022-11-18T05:55:27.299Z,99.90
2022-11-18T05:57:55.689Z,1.00
2022-11-18T06:00:25.225Z,99.90
2022-11-18T06:02:53.498Z,1.00
2022-11-18T06:05:21.695Z,17.50
2022-11-18T06:07:49.821Z,99.90
2022-11-18T06:10:19.097Z,99.90
2022-11-18T06:12:48.511Z,99.90
2022-11-18T06:15:17.356Z,99.90
2022-11-18T06:17:48.236Z,99.90
2022-11-18T06:20:18.901Z,99.90
2022-11-18T06:22:47.107Z,99.90
2022-11-18T06:25:15.242Z,99.90
2022-11-18T06:27:43.387Z,99.90
2022-11-18T06:30:12.392Z,99.90
2022-11-18T06:32:40.770Z,1.00
2022-11-18T06:35:11.062Z,4.80
2022-11-18T06:37:39.287Z,1.00
2022-11-18T06:40:08.762Z,1.00
2022-11-18T06:42:54.401Z,1.00
2022-11-18T06:45:22.562Z,1.00
2022-11-18T06:47:50.914Z,1.00
2022-11-18T06:50:20.590Z,1.00
2022-11-18T06:52:48.678Z,1.00
2022-11-18T06:55:17.119Z,1.00
2022-11-18T06:57:45.347Z,99.90
2022-11-18T07:00:15.090Z,1.00
2022-11-18T07:02:43.342Z,99.90
2022-11-18T07:05:11.598Z,1.00
2022-11-18T07:07:42.344Z,1.00
2022-11-18T07:10:11.223Z,1.00
2022-11-18T07:12:39.303Z,1.00
2022-11-18T07:15:08.363Z,1.00
2022-11-18T07:17:36.471Z,1.00
2022-11-18T07:20:04.771Z,1.00
2022-11-18T07:22:33.009Z,1.00
2022-11-18T07:25:02.463Z,1.00
2022-11-18T07:27:30.783Z,1.00
2022-11-18T07:29:59.083Z,1.00
2022-11-18T07:32:27.205Z,1.00
2022-11-18T07:34:55.674Z,86.00
2022-11-18T07:37:23.761Z,79.30
2022-11-18T07:39:51.837Z,1.00
2022-11-18T07:42:21.365Z,1.00
2022-11-18T07:44:49.437Z,99.90
2022-11-18T07:47:17.554Z,1.00
2022-11-18T07:49:45.634Z,99.90
2022-11-18T07:52:13.816Z,1.00
2022-11-18T07:54:41.891Z,99.90
2022-11-18T07:57:10.201Z,99.90
2022-11-18T07:59:39.636Z,17.40
2022-11-18T08:02:07.898Z,1.00
2022-11-18T08:04:37.980Z,1.00
2022-11-18T08:07:06.231Z,59.00
2022-11-18T08:09:34.360Z,10.50
2022-11-18T08:12:02.542Z,99.90
2022-11-18T08:14:30.600Z,99.90
2022-11-18T08:17:00.057Z,99.90
2022-11-18T08:19:28.198Z,1.00
2022-11-18T08:21:56.363Z,1.00
2022-11-18T08:24:24.533Z,1.00
2022-11-18T08:26:52.673Z,99.90
2022-11-18T08:29:25.073Z,71.70
2022-11-18T08:31:54.741Z,99.90
2022-11-18T08:34:24.396Z,1.00
2022-11-18T08:36:52.577Z,1.00
2022-11-18T08:39:20.695Z,1.00
2022-11-18T08:41:49.120Z,1.00
2022-11-18T08:44:17.621Z,1.00
2022-11-18T08:46:46.185Z,1.00
2022-11-18T08:49:14.269Z,1.00
2022-11-18T08:51:43.733Z,1.00
2022-11-18T08:54:11.857Z,1.00
2022-11-18T08:56:40.293Z,1.00
2022-11-18T08:59:09.054Z,1.00
2022-11-18T09:01:37.728Z,1.00
2022-11-18T09:04:06.387Z,1.00
2022-11-18T09:06:35.109Z,1.00
2022-11-18T09:09:06.589Z,99.90
2022-11-18T09:11:35.396Z,99.90
2022-11-18T09:16:51.893Z,1.00
2022-11-18T09:22:08.242Z,1.00
2022-11-18T09:24:38.266Z,1.00
2022-11-18T09:27:09.693Z,1.00
2022-11-18T09:29:40.408Z,1.00
2022-11-18T09:32:08.532Z,1.00
2022-11-18T09:34:36.659Z,1.00
2022-11-18T09:37:06.835Z,1.00
2022-11-18T09:39:37.721Z,1.00
2022-11-18T09:42:30.512Z,1.00
2022-11-18T09:45:13.181Z,99.90
2022-11-18T09:47:42.254Z,99.90
2022-11-18T09:50:41.554Z,99.90
2022-11-18T09:53:05.870Z,99.90
2022-11-18T09:55:36.090Z,99.90
2022-11-18T09:58:04.274Z,99.90
2022-11-18T10:00:32.433Z,99.90
2022-11-18T10:03:01.921Z,99.90
2022-11-18T10:05:31.006Z,99.90
2022-11-18T10:08:05.209Z,99.90
2022-11-18T10:10:41.308Z,99.90
2022-11-18T10:13:14.271Z,99.90
2022-11-18T10:15:44.798Z,99.90
2022-11-18T10:18:45.064Z,99.90
2022-11-18T10:21:13.526Z,99.90
2022-11-18T10:23:45.028Z,99.90
2022-11-18T10:26:15.533Z,99.90
2022-11-18T10:28:43.589Z,99.90
2022-11-18T10:31:12.456Z,99.90
2022-11-18T10:33:40.661Z,99.90
2022-11-18T10:36:27.155Z,99.90
2022-11-18T10:39:09.547Z,99.90
2022-11-18T10:41:43.735Z,99.90
2022-11-18T10:44:31.602Z,99.90
2022-11-18T10:47:16.236Z,99.90
2022-11-18T10:49:44.300Z,99.90
2022-11-18T10:52:13.075Z,99.90
2022-11-18T10:54:41.567Z,99.90
2022-11-18T10:57:15.879Z,99.90
2022-11-18T10:59:48.274Z,99.90
2022-11-18T11:02:18.962Z,99.90
2022-11-18T11:04:47.486Z,99.90
2022-11-18T11:07:17.471Z,99.90
2022-11-18T11:09:46.414Z,99.90
2022-11-18T11:12:16.830Z,99.90
2022-11-18T11:14:50.848Z,99.90
2022-11-18T11:17:21.167Z,99.90
2022-11-18T11:19:52.757Z,99.90
2022-11-18T11:22:21.195Z,99.90
2022-11-18T11:24:49.283Z,99.90
2022-11-18T11:30:29.586Z,99.90
2022-11-18T11:33:20.955Z,99.90
2022-11-18T11:35:52.901Z,99.90
2022-11-18T11:38:26.752Z,99.90
2022-11-18T11:41:00.581Z,99.90
2022-11-18T11:43:35.968Z,99.90
2022-11-18T11:46:27.494Z,99.90
2022-11-18T11:49:00.500Z,99.90
2022-11-18T11:51:33.602Z,99.90
2022-11-18T11:54:32.525Z,72.20
2022-11-18T11:57:03.356Z,73.40
2022-11-18T11:59:36.828Z,54.80
2022-11-18T12:02:33.747Z,99.90
2022-11-18T12:05:03.076Z,99.90
2022-11-18T12:07:33.205Z,41.50
2022-11-18T12:10:09.234Z,19.90
2022-11-18T12:12:39.587Z,89.90
2022-11-18T12:15:17.391Z,99.90
2022-11-18T12:17:49.960Z,93.40
2022-11-18T12:20:43.492Z,65.20
2022-11-18T12:23:13.389Z,62.10
2022-11-18T12:26:01.160Z,1.00
2022-11-18T12:28:33.809Z,1.00
2022-11-18T12:31:39.802Z,25.40
2022-11-18T12:34:20.403Z,1.00
2022-11-18T12:36:49.038Z,1.00
2022-11-18T12:39:50.809Z,1.00
2022-11-18T12:42:56.889Z,1.00
2022-11-18T12:45:59.049Z,1.00
2022-11-18T12:48:46.486Z,1.00
2022-11-18T12:51:47.956Z,1.00
2022-11-18T12:54:29.874Z,1.00
2022-11-18T12:57:00.365Z,1.00
2022-11-18T12:59:33.053Z,1.00
2022-11-18T13:02:06.334Z,1.00
2022-11-18T13:04:40.055Z,1.00
2022-11-18T13:07:33.211Z,1.00
2022-11-18T13:10:01.365Z,1.00
2022-11-18T13:12:30.728Z,1.00
2022-11-18T13:15:16.222Z,1.00
2022-11-18T13:17:54.849Z,1.00
2022-11-18T13:20:27.462Z,1.00
2022-11-18T13:23:13.960Z,1.00
2022-11-18T13:25:42.682Z,1.00
2022-11-18T13:28:18.319Z,1.00
2022-11-18T13:30:48.583Z,1.00
2022-11-18T13:33:16.681Z,1.00
2022-11-18T13:35:46.287Z,1.00
2022-11-18T13:38:27.407Z,1.00
2022-11-18T13:41:13.142Z,1.00
2022-11-18T13:43:41.288Z,1.00
2022-11-18T13:46:12.059Z,99.90
2022-11-18T13:48:42.224Z,1.00
2022-11-18T13:51:11.981Z,99.90
2022-11-18T13:53:40.192Z,99.90
2022-11-18T13:56:09.168Z,99.90
2022-11-18T13:59:02.798Z,99.90
2022-11-18T14:01:28.095Z,99.90
2022-11-18T14:03:58.602Z,1.00
2022-11-18T14:06:29.079Z,99.90
2022-11-18T14:09:18.804Z,99.90
2022-11-18T14:11:47.793Z,99.90
2022-11-18T14:14:29.659Z,99.90
2022-11-18T14:17:05.309Z,99.90
2022-11-18T14:19:33.865Z,99.90
2022-11-18T14:22:11.605Z,99.90
2022-11-18T14:24:41.061Z,99.90
2022-11-18T14:27:36.760Z,99.90
2022-11-18T14:30:32.792Z,99.90
2022-11-18T14:33:21.281Z,99.90
2022-11-18T14:35:50.727Z,99.90
2022-11-18T14:38:37.030Z,99.90
2022-11-18T14:41:11.818Z,99.90
2022-11-18T14:43:39.942Z,99.90
2022-11-18T14:46:12.165Z,99.90
2022-11-18T14:48:40.294Z,99.90
2022-11-18T14:51:08.364Z,99.90
2022-11-18T14:53:37.823Z,99.90
2022-11-18T14:56:13.174Z,99.90
2022-11-18T14:58:41.422Z,99.90
2022-11-18T15:01:11.498Z,99.90
2022-11-18T15:03:39.807Z,99.90
2022-11-18T15:06:13.109Z,99.90
2022-11-18T15:08:43.355Z,99.90
2022-11-18T15:11:11.521Z,99.90
2022-11-18T15:13:39.794Z,99.90
2022-11-18T15:16:14.124Z,99.90
2022-11-18T15:18:42.287Z,99.90
2022-11-18T15:21:10.838Z,99.90
2022-11-18T15:23:38.986Z,99.90
2022-11-18T15:26:17.462Z,99.90
2022-11-18T15:28:45.541Z,99.90
2022-11-18T15:31:13.675Z,99.90
2022-11-18T15:33:41.767Z,99.90
2022-11-18T15:36:12.629Z,99.90
2022-11-18T15:38:40.766Z,99.90
2022-11-18T15:41:09.249Z,99.90
2022-11-18T15:43:38.702Z,99.90
2022-11-18T15:46:07.117Z,99.90
2022-11-18T15:48:35.419Z,99.90
2022-11-18T15:51:06.430Z,99.90
2022-11-18T15:53:38.602Z,99.90
2022-11-18T15:56:17.413Z,99.90
2022-11-18T15:58:46.915Z,99.90
2022-11-18T16:01:15.146Z,99.90
2022-11-18T16:03:43.265Z,99.90
2022-11-18T16:06:11.445Z,99.90
2022-11-18T16:08:39.483Z,99.90
2022-11-18T16:11:25.056Z,99.90
2022-11-18T16:13:54.915Z,99.90
2022-11-18T16:16:23.831Z,99.90
2022-11-18T16:18:55.557Z,99.90
2022-11-18T16:21:23.772Z,99.90
2022-11-18T16:23:51.826Z,99.90
2022-11-18T16:26:20.104Z,99.90
2022-11-18T16:28:48.220Z,99.90
2022-11-18T16:31:35.169Z,99.90
2022-11-18T16:34:06.887Z,99.90
2022-11-18T16:36:35.598Z,99.90
2022-11-18T16:39:07.726Z,99.90
2022-11-18T16:41:35.958Z,99.90
2022-11-18T16:44:05.268Z,99.90
2022-11-18T16:46:35.760Z,99.90
2022-11-18T16:49:04.185Z,99.90
2022-11-18T16:51:32.780Z,99.90
2022-11-18T16:54:01.485Z,99.90
2022-11-18T16:56:30.442Z,99.90
2022-11-18T16:58:59.494Z,99.90
2022-11-18T17:01:29.708Z,99.90
2022-11-18T17:04:00.678Z,99.90
2022-11-18T17:06:29.132Z,99.90
2022-11-18T17:08:57.212Z,99.90
2022-11-18T17:11:25.384Z,99.90
2022-11-18T17:13:57.748Z,99.90
2022-11-18T17:16:26.901Z,99.90
2022-11-18T17:18:55.697Z,99.90
2022-11-18T17:21:25.453Z,99.90
2022-11-18T17:23:53.550Z,99.90
2022-11-18T17:26:22.695Z,99.90
2022-11-18T17:28:50.906Z,99.90
2022-11-18T17:31:20.529Z,99.90
2022-11-18T17:33:49.050Z,99.90
2022-11-18T17:36:18.041Z,99.90
2022-11-18T17:38:48.303Z,99.90
2022-11-18T17:41:31.041Z,99.90
2022-11-18T17:43:59.273Z,99.90
2022-11-18T17:46:27.432Z,99.90
2022-11-18T17:48:56.004Z,99.90
2022-11-18T17:51:24.225Z,99.90
2022-11-18T17:53:53.867Z,99.90
2022-11-18T17:56:22.085Z,99.90
2022-11-18T17:58:50.494Z,99.90
2022-11-18T18:01:19.738Z,99.90
2022-11-18T18:03:47.917Z,99.90
2022-11-18T18:06:16.468Z,99.90
2022-11-18T18:08:44.550Z,99.90
2022-11-18T18:11:15.283Z,99.90
2022-11-18T18:14:01.095Z,99.90
2022-11-18T18:16:29.970Z,99.90
2022-11-18T18:18:59.202Z,99.90
2022-11-18T18:21:27.407Z,99.90
2022-11-18T18:23:56.017Z,99.90
2022-11-18T18:26:31.260Z,99.90
2022-11-18T18:28:59.880Z,99.90
2022-11-18T18:31:28.145Z,99.90
2022-11-18T18:33:56.214Z,99.90
2022-11-18T18:36:25.424Z,99.90
2022-11-18T18:38:53.822Z,99.90
2022-11-18T18:41:23.080Z,99.90
2022-11-18T18:43:52.544Z,99.90
2022-11-18T18:46:30.153Z,99.90
2022-11-18T18:49:00.173Z,99.90
2022-11-18T18:51:28.541Z,99.90
2022-11-18T18:53:57.744Z,99.90
2022-11-18T18:56:26.006Z,99.90
2022-11-18T18:58:55.513Z,99.90
2022-11-18T19:01:23.712Z,99.90
2022-11-18T19:03:55.522Z,99.90
2022-11-18T19:09:13.569Z,99.90
2022-11-18T19:11:59.135Z,99.90
2022-11-18T19:14:28.959Z,99.90
2022-11-18T19:16:57.518Z,99.90
2022-11-18T19:19:40.754Z,99.90
2022-11-18T19:22:10.204Z,99.90
2022-11-18T19:27:26.612Z,99.90
2022-11-18T19:29:56.397Z,99.90
2022-11-18T19:32:24.536Z,99.90
2022-11-18T19:34:52.604Z,99.90
2022-11-18T19:37:20.960Z,99.90
2022-11-18T19:39:49.274Z,99.90
2022-11-18T19:42:17.488Z,99.90
2022-11-18T19:44:45.630Z,99.90
2022-11-18T19:47:15.168Z,99.90
2022-11-18T19:49:43.266Z,99.90
2022-11-18T19:52:11.392Z,99.90
2022-11-18T19:54:40.646Z,99.90
2022-11-18T19:57:08.842Z,99.90
2022-11-18T19:59:36.962Z,99.90
2022-11-18T20:02:05.131Z,99.90
2022-11-18T20:04:34.580Z,99.90
2022-11-18T20:07:02.647Z,99.90
2022-11-18T20:09:30.942Z,99.90
2022-11-18T20:11:59.117Z,99.90
2022-11-18T20:14:27.275Z,99.90
2022-11-18T20:16:55.384Z,99.90
2022-11-18T20:19:25.474Z,99.90
2022-11-18T20:21:54.990Z,99.90
2022-11-18T20:24:23.117Z,99.90
2022-11-18T20:26:51.319Z,99.90
2022-11-18T20:29:19.697Z,99.90
2022-11-18T20:31:48.079Z,99.90
2022-11-18T20:34:16.202Z,99.90
2022-11-18T20:36:44.549Z,99.90
2022-11-18T20:39:15.647Z,99.90
2022-11-18T20:41:43.839Z,99.90
2022-11-18T20:44:10.956Z,99.90
2022-11-18T20:46:39.101Z,99.90
2022-11-18T20:49:07.385Z,99.90
2022-11-18T20:51:35.500Z,99.90
2022-11-18T20:54:08.226Z,99.90
2022-11-18T20:56:37.837Z,99.90
2022-11-18T20:59:06.155Z,99.90
2022-11-18T21:01:34.514Z,99.90
2022-11-18T21:04:03.623Z,99.90
2022-11-18T21:06:32.487Z,99.90
2022-11-18T21:09:01.223Z,99.90
2022-11-18T21:11:29.716Z,99.90
2022-11-18T21:14:22.884Z,99.90
2022-11-18T21:16:51.909Z,99.90
2022-11-18T21:19:20.504Z,99.90
2022-11-18T21:21:52.069Z,99.90
2022-11-18T21:24:20.778Z,99.90
2022-11-18T21:26:49.633Z,99.90
2022-11-18T21:29:19.583Z,99.90
2022-11-18T21:31:48.103Z,99.90
2022-11-18T21:34:16.562Z,99.90
2022-11-18T21:36:49.001Z,99.90
2022-11-18T21:39:19.936Z,99.90
2022-11-18T21:41:53.616Z,99.90
2022-11-18T21:44:25.030Z,99.90
2022-11-18T21:46:53.205Z,99.90
2022-11-18T21:49:21.999Z,99.90
2022-11-18T21:51:50.602Z,99.90
2022-11-18T21:54:19.209Z,99.90
2022-11-18T21:56:47.440Z,99.90
2022-11-18T21:59:15.782Z,99.90
2022-11-18T22:01:45.426Z,99.90
2022-11-18T22:04:33.795Z,99.90
2022-11-18T22:07:02.112Z,99.90
2022-11-18T22:09:36.176Z,99.90
2022-11-18T22:12:06.668Z,99.90
2022-11-18T22:14:34.873Z,99.90
2022-11-18T22:17:04.505Z,99.90
2022-11-18T22:19:32.635Z,99.90
2022-11-18T22:22:00.831Z,99.90
2022-11-18T22:24:29.001Z,99.90
2022-11-18T22:26:57.227Z,99.90
2022-11-18T22:29:26.252Z,99.90
2022-11-18T22:31:54.596Z,99.90
2022-11-18T22:34:24.247Z,99.90
2022-11-18T22:36:52.453Z,99.90
2022-11-18T22:39:21.030Z,99.90
2022-11-18T22:42:07.044Z,99.90
2022-11-18T22:44:35.102Z,99.90
2022-11-18T22:47:03.238Z,99.90
2022-11-18T22:49:32.748Z,99.90
2022-11-18T22:52:01.150Z,99.90
2022-11-18T22:54:44.486Z,99.90
2022-11-18T22:57:12.684Z,99.90
2022-11-18T22:59:40.740Z,99.90
2022-11-18T23:02:08.875Z,99.90
2022-11-18T23:04:38.575Z,99.90
2022-11-18T23:07:08.172Z,99.90
2022-11-18T23:09:36.302Z,99.90
2022-11-18T23:12:22.001Z,99.90
2022-11-18T23:14:50.089Z,99.90
2022-11-18T23:17:18.274Z,99.90
2022-11-18T23:19:47.790Z,99.90
2022-11-18T23:22:15.926Z,99.90
2022-11-18T23:24:44.057Z,99.90
2022-11-18T23:27:12.251Z,99.90
2022-11-18T23:29:40.410Z,99.90
2022-11-18T23:32:08.479Z,99.90
2022-11-18T23:34:36.701Z,99.90
2022-11-18T23:37:06.481Z,99.90
2022-11-18T23:39:34.776Z,99.90
2022-11-18T23:42:02.948Z,99.90
2022-11-18T23:44:52.730Z,99.90
2022-11-18T23:47:20.902Z,99.90
2022-11-18T23:49:48.946Z,99.90
2022-11-18T23:52:18.672Z,99.90
2022-11-18T23:54:46.827Z,99.90
2022-11-18T23:57:15.021Z,99.90
2022-11-18T23:59:43.261Z,99.90
